sensor_id;sensor_type;location;lat;lon;timestamp;temperature;humidity
26342;DHT22;14054;50.108;8.640;2023-08-08T00:02:01;15.10;99.90
26342;DHT22;14054;50.108;8.640;2023-08-08T00:04:27;15.10;99.90
26342;DHT22;14054;50.108;8.640;2023-08-08T00:06:52;15.10;99.90
26342;DHT22;14054;50.108;8.640;2023-08-08T00:09:18;15.00;99.90
26342;DHT22;14054;50.108;8.640;2023-08-08T00:11:43;15.00;99.90
26342;DHT22;14054;50.108;8.640;2023-08-08T00:14:09;15.10;99.90
26342;DHT22;14054;50.108;8.640;2023-08-08T00:16:34;15.10;99.90
26342;DHT22;14054;50.108;8.640;2023-08-08T00:18:59;15.00;99.90
26342;DHT22;14054;50.108;8.640;2023-08-08T00:21:25;15.00;99.90
26342;DHT22;14054;50.108;8.640;2023-08-08T00:23:50;15.00;99.90
26342;DHT22;14054;50.108;8.640;2023-08-08T00:26:17;14.90;99.90
26342;DHT22;14054;50.108;8.640;2023-08-08T00:28:42;15.00;99.90
26342;DHT22;14054;50.108;8.640;2023-08-08T00:31:08;15.00;99.90
26342;DHT22;14054;50.108;8.640;2023-08-08T00:33:33;14.90;99.90
26342;DHT22;14054;50.108;8.640;2023-08-08T00:35:59;15.00;99.90
26342;DHT22;14054;50.108;8.640;2023-08-08T00:38:24;14.90;99.90
26342;DHT22;14054;50.108;8.640;2023-08-08T00:40:50;14.90;99.90
26342;DHT22;14054;50.108;8.640;2023-08-08T00:43:15;14.90;99.90
26342;DHT22;14054;50.108;8.640;2023-08-08T00:45:42;14.90;99.90
26342;DHT22;14054;50.108;8.640;2023-08-08T00:48:09;14.90;99.90
26342;DHT22;14054;50.108;8.640;2023-08-08T00:50:36;14.90;99.90
26342;DHT22;14054;50.108;8.640;2023-08-08T00:53:05;14.90;99.90
26342;DHT22;14054;50.108;8.640;2023-08-08T00:55:31;14.90;99.90
26342;DHT22;14054;50.108;8.640;2023-08-08T00:57:57;14.90;99.90
26342;DHT22;14054;50.108;8.640;2023-08-08T01:00:22;14.90;99.90
26342;DHT22;14054;50.108;8.640;2023-08-08T01:02:48;14.90;99.90
26342;DHT22;14054;50.108;8.640;2023-08-08T01:05:13;14.80;99.90
26342;DHT22;14054;50.108;8.640;2023-08-08T01:08:02;14.80;99.90
26342;DHT22;14054;50.108;8.640;2023-08-08T01:10:39;14.80;99.90
26342;DHT22;14054;50.108;8.640;2023-08-08T01:13:10;14.70;99.90
26342;DHT22;14054;50.108;8.640;2023-08-08T01:15:37;14.70;99.90
26342;DHT22;14054;50.108;8.640;2023-08-08T01:18:05;14.80;99.90
26342;DHT22;14054;50.108;8.640;2023-08-08T01:20:32;14.70;99.90
26342;DHT22;14054;50.108;8.640;2023-08-08T01:23:09;14.70;99.90
26342;DHT22;14054;50.108;8.640;2023-08-08T01:25:38;14.70;99.90
26342;DHT22;14054;50.108;8.640;2023-08-08T01:28:06;14.70;99.90
26342;DHT22;14054;50.108;8.640;2023-08-08T01:30:33;14.60;99.90
26342;DHT22;14054;50.108;8.640;2023-08-08T01:32:58;14.60;99.90
26342;DHT22;14054;50.108;8.640;2023-08-08T01:35:26;14.50;99.90
26342;DHT22;14054;50.108;8.640;2023-08-08T01:38:00;14.50;99.90
26342;DHT22;14054;50.108;8.640;2023-08-08T01:40:29;14.50;99.90
26342;DHT22;14054;50.108;8.640;2023-08-08T01:42:55;14.50;99.90
26342;DHT22;14054;50.108;8.640;2023-08-08T01:45:21;14.40;99.90
26342;DHT22;14054;50.108;8.640;2023-08-08T01:47:50;14.40;99.90
26342;DHT22;14054;50.108;8.640;2023-08-08T01:50:16;14.30;99.90
26342;DHT22;14054;50.108;8.640;2023-08-08T01:52:41;14.30;99.90
26342;DHT22;14054;50.108;8.640;2023-08-08T01:55:07;14.30;99.90
26342;DHT22;14054;50.108;8.640;2023-08-08T01:57:33;14.30;99.90
26342;DHT22;14054;50.108;8.640;2023-08-08T01:59:58;14.30;99.90
26342;DHT22;14054;50.108;8.640;2023-08-08T02:02:24;14.30;99.90
26342;DHT22;14054;50.108;8.640;2023-08-08T02:04:49;14.20;99.90
26342;DHT22;14054;50.108;8.640;2023-08-08T02:07:15;14.20;99.90
26342;DHT22;14054;50.108;8.640;2023-08-08T02:09:41;14.10;99.90
26342;DHT22;14054;50.108;8.640;2023-08-08T02:12:07;14.10;99.90
26342;DHT22;14054;50.108;8.640;2023-08-08T02:14:32;14.00;99.90
26342;DHT22;14054;50.108;8.640;2023-08-08T02:16:58;14.00;99.90
26342;DHT22;14054;50.108;8.640;2023-08-08T02:19:23;14.00;99.90
26342;DHT22;14054;50.108;8.640;2023-08-08T02:21:49;14.00;99.90
26342;DHT22;14054;50.108;8.640;2023-08-08T02:24:14;14.00;99.90
26342;DHT22;14054;50.108;8.640;2023-08-08T02:26:40;13.90;99.90
26342;DHT22;14054;50.108;8.640;2023-08-08T02:29:05;13.90;99.90
26342;DHT22;14054;50.108;8.640;2023-08-08T02:31:31;13.80;99.90
26342;DHT22;14054;50.108;8.640;2023-08-08T02:33:56;13.80;99.90
26342;DHT22;14054;50.108;8.640;2023-08-08T02:36:22;13.80;99.90
26342;DHT22;14054;50.108;8.640;2023-08-08T02:38:47;13.80;99.90
26342;DHT22;14054;50.108;8.640;2023-08-08T02:41:15;13.80;99.90
26342;DHT22;14054;50.108;8.640;2023-08-08T02:43:40;13.80;99.90
26342;DHT22;14054;50.108;8.640;2023-08-08T02:46:06;13.70;99.90
26342;DHT22;14054;50.108;8.640;2023-08-08T02:48:31;13.60;99.90
26342;DHT22;14054;50.108;8.640;2023-08-08T02:50:57;13.50;99.90
26342;DHT22;14054;50.108;8.640;2023-08-08T02:53:22;13.40;99.90
26342;DHT22;14054;50.108;8.640;2023-08-08T02:55:47;13.40;99.90
26342;DHT22;14054;50.108;8.640;2023-08-08T02:58:13;13.20;99.90
26342;DHT22;14054;50.108;8.640;2023-08-08T03:00:39;13.10;99.90
26342;DHT22;14054;50.108;8.640;2023-08-08T03:03:04;13.00;99.90
26342;DHT22;14054;50.108;8.640;2023-08-08T03:05:30;12.90;99.90
26342;DHT22;14054;50.108;8.640;2023-08-08T03:07:55;12.90;99.90
26342;DHT22;14054;50.108;8.640;2023-08-08T03:10:21;12.90;99.90
26342;DHT22;14054;50.108;8.640;2023-08-08T03:12:46;13.00;99.90
26342;DHT22;14054;50.108;8.640;2023-08-08T03:15:13;12.90;99.90
26342;DHT22;14054;50.108;8.640;2023-08-08T03:17:39;12.90;99.90
26342;DHT22;14054;50.108;8.640;2023-08-08T03:20:05;12.80;99.90
26342;DHT22;14054;50.108;8.640;2023-08-08T03:22:32;12.90;99.90
26342;DHT22;14054;50.108;8.640;2023-08-08T03:24:57;12.90;99.90
26342;DHT22;14054;50.108;8.640;2023-08-08T03:27:24;12.80;99.90
26342;DHT22;14054;50.108;8.640;2023-08-08T03:29:49;12.90;99.90
26342;DHT22;14054;50.108;8.640;2023-08-08T03:32:14;12.80;99.90
26342;DHT22;14054;50.108;8.640;2023-08-08T03:34:40;12.80;99.90
26342;DHT22;14054;50.108;8.640;2023-08-08T03:37:05;12.70;99.90
26342;DHT22;14054;50.108;8.640;2023-08-08T03:39:31;12.80;99.90
26342;DHT22;14054;50.108;8.640;2023-08-08T03:41:56;12.70;99.90
26342;DHT22;14054;50.108;8.640;2023-08-08T03:44:22;12.60;99.90
26342;DHT22;14054;50.108;8.640;2023-08-08T03:46:47;12.50;99.90
26342;DHT22;14054;50.108;8.640;2023-08-08T03:49:13;12.50;99.90
26342;DHT22;14054;50.108;8.640;2023-08-08T03:51:38;12.50;99.90
26342;DHT22;14054;50.108;8.640;2023-08-08T03:54:04;12.50;99.90
26342;DHT22;14054;50.108;8.640;2023-08-08T03:56:29;12.60;99.90
26342;DHT22;14054;50.108;8.640;2023-08-08T03:58:55;12.50;99.90
26342;DHT22;14054;50.108;8.640;2023-08-08T04:01:22;12.60;99.90
26342;DHT22;14054;50.108;8.640;2023-08-08T04:03:48;12.60;99.90
26342;DHT22;14054;50.108;8.640;2023-08-08T04:06:13;12.60;99.90
26342;DHT22;14054;50.108;8.640;2023-08-08T04:08:38;12.60;99.90
26342;DHT22;14054;50.108;8.640;2023-08-08T04:11:04;12.60;99.90
26342;DHT22;14054;50.108;8.640;2023-08-08T04:13:29;12.60;99.90
26342;DHT22;14054;50.108;8.640;2023-08-08T04:15:55;12.50;99.90
26342;DHT22;14054;50.108;8.640;2023-08-08T04:18:21;12.50;99.90
26342;DHT22;14054;50.108;8.640;2023-08-08T04:20:46;12.40;99.90
26342;DHT22;14054;50.108;8.640;2023-08-08T04:23:14;12.40;99.90
26342;DHT22;14054;50.108;8.640;2023-08-08T04:25:40;12.40;99.90
26342;DHT22;14054;50.108;8.640;2023-08-08T04:28:05;12.50;99.90
26342;DHT22;14054;50.108;8.640;2023-08-08T04:30:31;12.50;99.90
26342;DHT22;14054;50.108;8.640;2023-08-08T04:32:56;12.60;99.90
26342;DHT22;14054;50.108;8.640;2023-08-08T04:35:22;12.60;99.90
26342;DHT22;14054;50.108;8.640;2023-08-08T04:37:47;12.60;99.90
26342;DHT22;14054;50.108;8.640;2023-08-08T04:40:13;12.60;99.90
26342;DHT22;14054;50.108;8.640;2023-08-08T04:42:39;12.60;99.90
26342;DHT22;14054;50.108;8.640;2023-08-08T04:45:05;12.40;99.90
26342;DHT22;14054;50.108;8.640;2023-08-08T04:47:31;12.50;99.90
26342;DHT22;14054;50.108;8.640;2023-08-08T04:49:56;12.50;99.90
26342;DHT22;14054;50.108;8.640;2023-08-08T04:52:22;12.50;99.90
26342;DHT22;14054;50.108;8.640;2023-08-08T04:54:47;12.40;99.90
26342;DHT22;14054;50.108;8.640;2023-08-08T04:57:13;12.40;99.90
26342;DHT22;14054;50.108;8.640;2023-08-08T04:59:38;12.40;99.90
26342;DHT22;14054;50.108;8.640;2023-08-08T05:02:04;12.50;99.90
26342;DHT22;14054;50.108;8.640;2023-08-08T05:04:31;12.40;99.90
26342;DHT22;14054;50.108;8.640;2023-08-08T05:06:57;12.40;99.90
26342;DHT22;14054;50.108;8.640;2023-08-08T05:09:23;12.50;99.90
26342;DHT22;14054;50.108;8.640;2023-08-08T05:11:52;12.50;99.90
26342;DHT22;14054;50.108;8.640;2023-08-08T05:14:18;12.60;99.90
26342;DHT22;14054;50.108;8.640;2023-08-08T05:16:43;12.60;99.90
26342;DHT22;14054;50.108;8.640;2023-08-08T05:19:09;12.60;99.90
26342;DHT22;14054;50.108;8.640;2023-08-08T05:21:34;12.60;99.90
26342;DHT22;14054;50.108;8.640;2023-08-08T05:24:00;12.60;99.90
26342;DHT22;14054;50.108;8.640;2023-08-08T05:26:26;12.70;99.90
26342;DHT22;14054;50.108;8.640;2023-08-08T05:28:51;12.70;99.90
26342;DHT22;14054;50.108;8.640;2023-08-08T05:31:17;12.70;99.90
26342;DHT22;14054;50.108;8.640;2023-08-08T05:33:42;12.80;99.90
26342;DHT22;14054;50.108;8.640;2023-08-08T05:36:07;12.80;99.90
26342;DHT22;14054;50.108;8.640;2023-08-08T05:38:33;12.90;99.90
26342;DHT22;14054;50.108;8.640;2023-08-08T05:40:58;12.90;99.90
26342;DHT22;14054;50.108;8.640;2023-08-08T05:43:24;13.00;99.90
26342;DHT22;14054;50.108;8.640;2023-08-08T05:45:49;13.10;99.90
26342;DHT22;14054;50.108;8.640;2023-08-08T05:48:15;13.20;99.90
26342;DHT22;14054;50.108;8.640;2023-08-08T05:50:40;13.40;99.90
26342;DHT22;14054;50.108;8.640;2023-08-08T05:53:07;13.50;99.90
26342;DHT22;14054;50.108;8.640;2023-08-08T05:55:32;13.60;99.90
26342;DHT22;14054;50.108;8.640;2023-08-08T05:57:58;13.70;99.90
26342;DHT22;14054;50.108;8.640;2023-08-08T06:00:24;13.70;99.90
26342;DHT22;14054;50.108;8.640;2023-08-08T06:02:49;13.80;99.90
26342;DHT22;14054;50.108;8.640;2023-08-08T06:05:16;13.90;99.90
26342;DHT22;14054;50.108;8.640;2023-08-08T06:07:42;14.00;99.90
26342;DHT22;14054;50.108;8.640;2023-08-08T06:10:08;14.10;99.90
26342;DHT22;14054;50.108;8.640;2023-08-08T06:12:33;14.10;99.90
26342;DHT22;14054;50.108;8.640;2023-08-08T06:14:59;14.20;99.90
26342;DHT22;14054;50.108;8.640;2023-08-08T06:17:24;14.30;99.90
26342;DHT22;14054;50.108;8.640;2023-08-08T06:19:50;14.20;99.90
26342;DHT22;14054;50.108;8.640;2023-08-08T06:22:16;14.40;99.90
26342;DHT22;14054;50.108;8.640;2023-08-08T06:24:41;14.50;99.90
26342;DHT22;14054;50.108;8.640;2023-08-08T06:27:07;14.60;99.90
26342;DHT22;14054;50.108;8.640;2023-08-08T06:29:32;14.60;99.90
26342;DHT22;14054;50.108;8.640;2023-08-08T06:31:58;14.80;99.90
26342;DHT22;14054;50.108;8.640;2023-08-08T06:34:23;14.90;99.90
26342;DHT22;14054;50.108;8.640;2023-08-08T06:36:49;14.90;99.90
26342;DHT22;14054;50.108;8.640;2023-08-08T06:39:15;15.00;99.90
26342;DHT22;14054;50.108;8.640;2023-08-08T06:41:40;15.10;99.90
26342;DHT22;14054;50.108;8.640;2023-08-08T06:44:07;15.20;99.90
26342;DHT22;14054;50.108;8.640;2023-08-08T06:46:33;15.30;99.90
26342;DHT22;14054;50.108;8.640;2023-08-08T06:48:58;15.50;99.90
26342;DHT22;14054;50.108;8.640;2023-08-08T06:51:25;15.70;99.90
26342;DHT22;14054;50.108;8.640;2023-08-08T06:53:51;15.70;99.90
26342;DHT22;14054;50.108;8.640;2023-08-08T06:56:17;15.80;99.90
26342;DHT22;14054;50.108;8.640;2023-08-08T06:58:43;15.90;99.90
26342;DHT22;14054;50.108;8.640;2023-08-08T07:01:09;16.00;99.90
26342;DHT22;14054;50.108;8.640;2023-08-08T07:03:35;16.00;99.90
26342;DHT22;14054;50.108;8.640;2023-08-08T07:06:02;16.00;99.90
26342;DHT22;14054;50.108;8.640;2023-08-08T07:08:28;16.10;99.90
26342;DHT22;14054;50.108;8.640;2023-08-08T07:10:56;16.30;99.90
26342;DHT22;14054;50.108;8.640;2023-08-08T07:13:22;16.30;99.90
26342;DHT22;14054;50.108;8.640;2023-08-08T07:15:47;16.50;99.90
26342;DHT22;14054;50.108;8.640;2023-08-08T07:18:13;16.60;99.90
26342;DHT22;14054;50.108;8.640;2023-08-08T07:20:38;16.80;99.90
26342;DHT22;14054;50.108;8.640;2023-08-08T07:23:04;17.00;99.90
26342;DHT22;14054;50.108;8.640;2023-08-08T07:25:30;17.10;99.90
26342;DHT22;14054;50.108;8.640;2023-08-08T07:27:56;17.10;99.90
26342;DHT22;14054;50.108;8.640;2023-08-08T07:30:21;17.10;99.90
26342;DHT22;14054;50.108;8.640;2023-08-08T07:32:47;17.10;99.90
26342;DHT22;14054;50.108;8.640;2023-08-08T07:35:12;17.10;99.90
26342;DHT22;14054;50.108;8.640;2023-08-08T07:37:38;17.20;99.90
26342;DHT22;14054;50.108;8.640;2023-08-08T07:40:16;17.30;99.90
26342;DHT22;14054;50.108;8.640;2023-08-08T07:42:43;17.50;99.90
26342;DHT22;14054;50.108;8.640;2023-08-08T07:45:09;17.60;99.90
26342;DHT22;14054;50.108;8.640;2023-08-08T07:47:34;17.80;99.90
26342;DHT22;14054;50.108;8.640;2023-08-08T07:50:00;17.80;99.90
26342;DHT22;14054;50.108;8.640;2023-08-08T07:52:25;18.00;99.90
26342;DHT22;14054;50.108;8.640;2023-08-08T07:54:51;18.20;99.90
26342;DHT22;14054;50.108;8.640;2023-08-08T07:57:16;18.20;99.90
26342;DHT22;14054;50.108;8.640;2023-08-08T07:59:42;18.30;99.90
26342;DHT22;14054;50.108;8.640;2023-08-08T08:02:07;18.30;99.90
26342;DHT22;14054;50.108;8.640;2023-08-08T08:04:33;18.40;99.90
26342;DHT22;14054;50.108;8.640;2023-08-08T08:06:59;18.50;99.90
26342;DHT22;14054;50.108;8.640;2023-08-08T08:09:25;18.50;99.90
26342;DHT22;14054;50.108;8.640;2023-08-08T08:11:50;18.60;99.90
26342;DHT22;14054;50.108;8.640;2023-08-08T08:14:16;18.80;99.90
26342;DHT22;14054;50.108;8.640;2023-08-08T08:16:41;19.10;99.90
26342;DHT22;14054;50.108;8.640;2023-08-08T08:19:07;19.30;99.90
26342;DHT22;14054;50.108;8.640;2023-08-08T08:21:32;19.40;99.90
26342;DHT22;14054;50.108;8.640;2023-08-08T08:23:58;19.30;99.90
26342;DHT22;14054;50.108;8.640;2023-08-08T08:26:23;19.20;99.90
26342;DHT22;14054;50.108;8.640;2023-08-08T08:28:49;19.20;99.90
26342;DHT22;14054;50.108;8.640;2023-08-08T08:31:14;19.40;99.90
26342;DHT22;14054;50.108;8.640;2023-08-08T08:33:39;19.30;99.90
26342;DHT22;14054;50.108;8.640;2023-08-08T08:36:05;19.40;99.90
26342;DHT22;14054;50.108;8.640;2023-08-08T08:38:31;19.30;99.90
26342;DHT22;14054;50.108;8.640;2023-08-08T08:40:57;19.20;99.90
26342;DHT22;14054;50.108;8.640;2023-08-08T08:43:23;19.30;99.90
26342;DHT22;14054;50.108;8.640;2023-08-08T08:45:52;19.30;99.90
26342;DHT22;14054;50.108;8.640;2023-08-08T08:48:22;19.40;99.90
26342;DHT22;14054;50.108;8.640;2023-08-08T08:50:48;19.40;99.90
26342;DHT22;14054;50.108;8.640;2023-08-08T08:53:15;19.30;99.90
26342;DHT22;14054;50.108;8.640;2023-08-08T08:55:41;19.30;99.90
26342;DHT22;14054;50.108;8.640;2023-08-08T08:58:07;19.40;99.90
26342;DHT22;14054;50.108;8.640;2023-08-08T09:00:33;19.50;99.90
26342;DHT22;14054;50.108;8.640;2023-08-08T09:02:59;19.50;99.90
26342;DHT22;14054;50.108;8.640;2023-08-08T09:05:25;19.50;99.90
26342;DHT22;14054;50.108;8.640;2023-08-08T09:07:51;19.40;99.90
26342;DHT22;14054;50.108;8.640;2023-08-08T09:10:17;19.40;99.90
26342;DHT22;14054;50.108;8.640;2023-08-08T09:12:44;19.50;99.90
26342;DHT22;14054;50.108;8.640;2023-08-08T09:15:11;19.60;99.90
26342;DHT22;14054;50.108;8.640;2023-08-08T09:17:40;19.60;99.90
26342;DHT22;14054;50.108;8.640;2023-08-08T09:20:07;19.70;99.90
26342;DHT22;14054;50.108;8.640;2023-08-08T09:22:33;19.90;99.90
26342;DHT22;14054;50.108;8.640;2023-08-08T09:24:59;20.20;99.90
26342;DHT22;14054;50.108;8.640;2023-08-08T09:27:24;20.30;99.90
26342;DHT22;14054;50.108;8.640;2023-08-08T09:29:50;20.50;99.90
26342;DHT22;14054;50.108;8.640;2023-08-08T09:32:15;20.60;99.90
26342;DHT22;14054;50.108;8.640;2023-08-08T09:34:43;20.60;99.90
26342;DHT22;14054;50.108;8.640;2023-08-08T09:37:09;20.70;99.90
26342;DHT22;14054;50.108;8.640;2023-08-08T09:39:36;20.60;99.90
26342;DHT22;14054;50.108;8.640;2023-08-08T09:42:02;20.40;99.90
26342;DHT22;14054;50.108;8.640;2023-08-08T09:44:29;20.40;99.90
26342;DHT22;14054;50.108;8.640;2023-08-08T09:46:56;20.40;99.90
26342;DHT22;14054;50.108;8.640;2023-08-08T09:49:22;20.50;99.90
26342;DHT22;14054;50.108;8.640;2023-08-08T09:51:49;20.50;99.90
26342;DHT22;14054;50.108;8.640;2023-08-08T09:54:16;20.30;99.90
26342;DHT22;14054;50.108;8.640;2023-08-08T09:56:42;20.50;99.90
26342;DHT22;14054;50.108;8.640;2023-08-08T09:59:09;20.50;99.90
26342;DHT22;14054;50.108;8.640;2023-08-08T10:01:35;20.50;99.90
26342;DHT22;14054;50.108;8.640;2023-08-08T10:04:06;20.50;99.90
26342;DHT22;14054;50.108;8.640;2023-08-08T10:06:31;20.60;99.90
26342;DHT22;14054;50.108;8.640;2023-08-08T10:08:57;21.00;99.90
26342;DHT22;14054;50.108;8.640;2023-08-08T10:11:23;21.00;99.90
26342;DHT22;14054;50.108;8.640;2023-08-08T10:13:50;20.90;99.90
26342;DHT22;14054;50.108;8.640;2023-08-08T10:16:16;20.80;99.90
26342;DHT22;14054;50.108;8.640;2023-08-08T10:18:42;20.90;99.90
26342;DHT22;14054;50.108;8.640;2023-08-08T10:21:08;21.30;99.90
26342;DHT22;14054;50.108;8.640;2023-08-08T10:23:37;21.40;99.90
26342;DHT22;14054;50.108;8.640;2023-08-08T10:26:03;21.50;99.90
26342;DHT22;14054;50.108;8.640;2023-08-08T10:28:28;21.80;99.90
26342;DHT22;14054;50.108;8.640;2023-08-08T10:30:58;21.80;99.90
26342;DHT22;14054;50.108;8.640;2023-08-08T10:33:38;21.60;99.90
26342;DHT22;14054;50.108;8.640;2023-08-08T10:36:06;21.90;99.90
26342;DHT22;14054;50.108;8.640;2023-08-08T10:38:48;22.10;99.90
26342;DHT22;14054;50.108;8.640;2023-08-08T10:41:20;22.00;99.90
26342;DHT22;14054;50.108;8.640;2023-08-08T10:43:57;21.80;99.90
26342;DHT22;14054;50.108;8.640;2023-08-08T10:46:32;21.80;99.90
26342;DHT22;14054;50.108;8.640;2023-08-08T10:49:05;21.80;99.90
26342;DHT22;14054;50.108;8.640;2023-08-08T10:51:42;21.80;99.90
26342;DHT22;14054;50.108;8.640;2023-08-08T10:54:13;21.60;99.90
26342;DHT22;14054;50.108;8.640;2023-08-08T10:56:39;21.50;99.90
26342;DHT22;14054;50.108;8.640;2023-08-08T10:59:22;21.30;99.90
26342;DHT22;14054;50.108;8.640;2023-08-08T11:01:50;21.70;99.90
26342;DHT22;14054;50.108;8.640;2023-08-08T11:04:19;22.00;99.90
26342;DHT22;14054;50.108;8.640;2023-08-08T11:06:45;22.10;99.90
26342;DHT22;14054;50.108;8.640;2023-08-08T11:09:13;22.30;99.20
26342;DHT22;14054;50.108;8.640;2023-08-08T11:11:42;22.50;98.70
26342;DHT22;14054;50.108;8.640;2023-08-08T11:14:15;22.40;98.50
26342;DHT22;14054;50.108;8.640;2023-08-08T11:16:42;22.30;97.90
26342;DHT22;14054;50.108;8.640;2023-08-08T11:19:09;22.10;98.40
26342;DHT22;14054;50.108;8.640;2023-08-08T11:21:36;22.00;99.00
26342;DHT22;14054;50.108;8.640;2023-08-08T11:24:03;22.10;99.10
26342;DHT22;14054;50.108;8.640;2023-08-08T11:26:29;22.20;97.80
26342;DHT22;14054;50.108;8.640;2023-08-08T11:28:58;22.30;96.70
26342;DHT22;14054;50.108;8.640;2023-08-08T11:31:24;22.10;95.90
26342;DHT22;14054;50.108;8.640;2023-08-08T11:33:50;22.30;95.30
26342;DHT22;14054;50.108;8.640;2023-08-08T11:36:16;22.40;94.90
26342;DHT22;14054;50.108;8.640;2023-08-08T11:38:42;22.60;94.80
26342;DHT22;14054;50.108;8.640;2023-08-08T11:41:10;22.70;94.30
26342;DHT22;14054;50.108;8.640;2023-08-08T11:43:37;22.90;94.10
26342;DHT22;14054;50.108;8.640;2023-08-08T11:46:03;23.20;93.10
26342;DHT22;14054;50.108;8.640;2023-08-08T11:48:28;23.50;92.40
26342;DHT22;14054;50.108;8.640;2023-08-08T11:50:54;23.30;90.90
26342;DHT22;14054;50.108;8.640;2023-08-08T11:53:19;23.20;91.30
26342;DHT22;14054;50.108;8.640;2023-08-08T11:55:45;22.90;92.50
26342;DHT22;14054;50.108;8.640;2023-08-08T11:58:14;22.70;93.00
26342;DHT22;14054;50.108;8.640;2023-08-08T12:00:42;22.80;93.80
26342;DHT22;14054;50.108;8.640;2023-08-08T12:03:11;22.80;93.30
26342;DHT22;14054;50.108;8.640;2023-08-08T12:05:39;22.80;92.70
26342;DHT22;14054;50.108;8.640;2023-08-08T12:08:06;22.90;92.70
26342;DHT22;14054;50.108;8.640;2023-08-08T12:10:32;22.90;93.10
26342;DHT22;14054;50.108;8.640;2023-08-08T12:12:58;23.10;93.20
26342;DHT22;14054;50.108;8.640;2023-08-08T12:15:31;23.30;92.80
26342;DHT22;14054;50.108;8.640;2023-08-08T12:17:58;23.30;92.50
26342;DHT22;14054;50.108;8.640;2023-08-08T12:20:27;23.30;92.20
26342;DHT22;14054;50.108;8.640;2023-08-08T12:22:54;23.40;92.40
26342;DHT22;14054;50.108;8.640;2023-08-08T12:25:19;23.70;92.10
26342;DHT22;14054;50.108;8.640;2023-08-08T12:27:45;23.80;92.40
26342;DHT22;14054;50.108;8.640;2023-08-08T12:30:11;23.80;92.20
26342;DHT22;14054;50.108;8.640;2023-08-08T12:32:36;23.50;91.90
26342;DHT22;14054;50.108;8.640;2023-08-08T12:35:02;23.60;91.30
26342;DHT22;14054;50.108;8.640;2023-08-08T12:37:27;23.60;90.70
26342;DHT22;14054;50.108;8.640;2023-08-08T12:39:53;23.60;90.20
26342;DHT22;14054;50.108;8.640;2023-08-08T12:42:18;23.90;89.70
26342;DHT22;14054;50.108;8.640;2023-08-08T12:44:44;23.70;89.60
26342;DHT22;14054;50.108;8.640;2023-08-08T12:47:10;23.50;90.20
26342;DHT22;14054;50.108;8.640;2023-08-08T12:49:36;23.60;90.20
26342;DHT22;14054;50.108;8.640;2023-08-08T12:52:02;23.70;90.30
26342;DHT22;14054;50.108;8.640;2023-08-08T12:54:27;23.60;90.00
26342;DHT22;14054;50.108;8.640;2023-08-08T12:56:53;23.20;90.30
26342;DHT22;14054;50.108;8.640;2023-08-08T12:59:18;23.00;90.80
26342;DHT22;14054;50.108;8.640;2023-08-08T13:01:44;22.90;91.50
26342;DHT22;14054;50.108;8.640;2023-08-08T13:04:09;22.80;92.20
26342;DHT22;14054;50.108;8.640;2023-08-08T13:06:35;22.60;92.70
26342;DHT22;14054;50.108;8.640;2023-08-08T13:09:00;22.40;93.00
26342;DHT22;14054;50.108;8.640;2023-08-08T13:11:26;22.30;93.60
26342;DHT22;14054;50.108;8.640;2023-08-08T13:13:52;22.40;93.40
26342;DHT22;14054;50.108;8.640;2023-08-08T13:16:17;23.20;92.20
26342;DHT22;14054;50.108;8.640;2023-08-08T13:18:43;23.80;91.20
26342;DHT22;14054;50.108;8.640;2023-08-08T13:21:09;24.50;87.60
26342;DHT22;14054;50.108;8.640;2023-08-08T13:23:36;24.00;85.20
26342;DHT22;14054;50.108;8.640;2023-08-08T13:26:01;23.20;86.30
26342;DHT22;14054;50.108;8.640;2023-08-08T13:28:29;22.90;87.50
26342;DHT22;14054;50.108;8.640;2023-08-08T13:30:54;22.50;87.70
26342;DHT22;14054;50.108;8.640;2023-08-08T13:33:20;22.60;88.90
26342;DHT22;14054;50.108;8.640;2023-08-08T13:35:46;22.80;89.60
26342;DHT22;14054;50.108;8.640;2023-08-08T13:38:12;22.80;88.30
26342;DHT22;14054;50.108;8.640;2023-08-08T13:40:41;22.50;89.00
26342;DHT22;14054;50.108;8.640;2023-08-08T13:43:06;22.40;89.60
26342;DHT22;14054;50.108;8.640;2023-08-08T13:45:32;22.20;89.30
26342;DHT22;14054;50.108;8.640;2023-08-08T13:47:57;22.10;90.20
26342;DHT22;14054;50.108;8.640;2023-08-08T13:50:23;22.20;90.50
26342;DHT22;14054;50.108;8.640;2023-08-08T13:52:48;22.20;90.20
26342;DHT22;14054;50.108;8.640;2023-08-08T13:55:14;22.20;90.70
26342;DHT22;14054;50.108;8.640;2023-08-08T13:57:39;22.10;90.90
26342;DHT22;14054;50.108;8.640;2023-08-08T14:00:05;21.90;91.20
26342;DHT22;14054;50.108;8.640;2023-08-08T14:02:32;21.80;91.70
26342;DHT22;14054;50.108;8.640;2023-08-08T14:04:58;22.10;91.50
26342;DHT22;14054;50.108;8.640;2023-08-08T14:07:24;22.20;91.80
26342;DHT22;14054;50.108;8.640;2023-08-08T14:09:49;22.20;91.40
26342;DHT22;14054;50.108;8.640;2023-08-08T14:12:15;22.00;91.70
26342;DHT22;14054;50.108;8.640;2023-08-08T14:14:40;22.00;91.70
26342;DHT22;14054;50.108;8.640;2023-08-08T14:17:06;21.90;91.70
26342;DHT22;14054;50.108;8.640;2023-08-08T14:19:32;21.60;91.60
26342;DHT22;14054;50.108;8.640;2023-08-08T14:21:57;21.50;91.70
26342;DHT22;14054;50.108;8.640;2023-08-08T14:24:23;21.40;92.10
26342;DHT22;14054;50.108;8.640;2023-08-08T14:26:48;21.40;92.00
26342;DHT22;14054;50.108;8.640;2023-08-08T14:29:14;21.40;91.90
26342;DHT22;14054;50.108;8.640;2023-08-08T14:31:39;21.30;92.10
26342;DHT22;14054;50.108;8.640;2023-08-08T14:34:05;21.70;91.90
26342;DHT22;14054;50.108;8.640;2023-08-08T14:36:30;22.20;91.20
26342;DHT22;14054;50.108;8.640;2023-08-08T14:38:56;22.50;90.80
26342;DHT22;14054;50.108;8.640;2023-08-08T14:41:21;22.40;90.80
26342;DHT22;14054;50.108;8.640;2023-08-08T14:43:47;22.20;90.90
26342;DHT22;14054;50.108;8.640;2023-08-08T14:46:12;21.90;91.30
26342;DHT22;14054;50.108;8.640;2023-08-08T14:48:38;21.70;92.20
26342;DHT22;14054;50.108;8.640;2023-08-08T14:51:03;21.40;92.60
26342;DHT22;14054;50.108;8.640;2023-08-08T14:53:29;21.20;93.60
26342;DHT22;14054;50.108;8.640;2023-08-08T14:55:54;21.00;94.00
26342;DHT22;14054;50.108;8.640;2023-08-08T14:58:20;20.80;94.60
26342;DHT22;14054;50.108;8.640;2023-08-08T15:00:45;20.70;95.20
26342;DHT22;14054;50.108;8.640;2023-08-08T15:03:11;20.70;95.80
26342;DHT22;14054;50.108;8.640;2023-08-08T15:05:39;20.70;96.30
26342;DHT22;14054;50.108;8.640;2023-08-08T15:08:06;20.70;96.50
26342;DHT22;14054;50.108;8.640;2023-08-08T15:10:31;20.70;97.00
26342;DHT22;14054;50.108;8.640;2023-08-08T15:12:57;20.70;97.30
26342;DHT22;14054;50.108;8.640;2023-08-08T15:15:22;20.60;97.40
26342;DHT22;14054;50.108;8.640;2023-08-08T15:17:49;20.70;98.00
26342;DHT22;14054;50.108;8.640;2023-08-08T15:20:15;20.60;98.40
26342;DHT22;14054;50.108;8.640;2023-08-08T15:22:40;20.50;98.80
26342;DHT22;14054;50.108;8.640;2023-08-08T15:25:06;20.50;99.30